createdAt,value
2023-01-06T00:01:36.867Z,19.25
2023-01-06T00:04:06.023Z,19.24
2023-01-06T00:06:35.009Z,19.25
2023-01-06T00:09:05.465Z,19.24
2023-01-06T00:11:34.329Z,19.23
2023-01-06T00:14:02.872Z,19.23
2023-01-06T00:16:31.556Z,19.22
2023-01-06T00:19:01.324Z,19.22
2023-01-06T00:21:30.827Z,19.20
2023-01-06T00:23:59.336Z,19.20
2023-01-06T00:26:27.755Z,19.20
2023-01-06T00:28:57.321Z,19.22
2023-01-06T00:31:25.683Z,19.23
2023-01-06T00:33:56.129Z,19.24
2023-01-06T00:36:25.482Z,19.26
2023-01-06T00:38:53.792Z,19.27
2023-01-06T00:41:40.787Z,19.29
2023-01-06T00:44:09.703Z,19.28
2023-01-06T00:46:38.005Z,19.31
2023-01-06T00:49:07.841Z,19.33
2023-01-06T00:51:41.200Z,19.37
2023-01-06T00:54:11.067Z,19.39
2023-01-06T00:56:45.203Z,19.42
2023-01-06T00:59:18.401Z,19.44
2023-01-06T01:01:48.325Z,19.47
2023-01-06T01:04:17.438Z,19.50
2023-01-06T01:06:47.780Z,19.55
2023-01-06T01:09:27.191Z,19.56
2023-01-06T01:12:11.119Z,19.61
2023-01-06T01:14:45.136Z,19.63
2023-01-06T01:17:15.228Z,19.64
2023-01-06T01:19:43.661Z,19.68
2023-01-06T01:22:12.085Z,19.69
2023-01-06T01:24:40.704Z,19.72
2023-01-06T01:27:09.532Z,19.76
2023-01-06T01:29:37.823Z,19.76
2023-01-06T01:32:06.542Z,19.78
2023-01-06T01:34:35.246Z,19.82
2023-01-06T01:37:03.931Z,19.86
2023-01-06T01:39:32.642Z,19.90
2023-01-06T01:42:01.356Z,19.93
2023-01-06T01:44:55.121Z,19.97
2023-01-06T01:47:39.274Z,19.99
2023-01-06T01:51:02.850Z,20.04
2023-01-06T01:53:39.557Z,20.13
2023-01-06T01:56:12.259Z,20.18
2023-01-06T01:58:47.267Z,20.23
2023-01-06T02:01:15.828Z,20.26
2023-01-06T02:03:44.493Z,20.30
2023-01-06T02:06:18.308Z,20.35
2023-01-06T02:08:57.069Z,20.41
2023-01-06T02:11:27.272Z,20.44
2023-01-06T02:14:22.717Z,20.50
2023-01-06T02:17:11.415Z,20.57
2023-01-06T02:20:03.377Z,20.65
2023-01-06T02:22:59.228Z,20.75
2023-01-06T02:25:59.613Z,20.85
2023-01-06T02:28:46.549Z,20.96
2023-01-06T02:31:44.274Z,21.07
2023-01-06T02:34:32.122Z,21.21
2023-01-06T02:37:13.926Z,21.33
2023-01-06T02:39:48.396Z,21.42
2023-01-06T02:42:53.804Z,21.50
2023-01-06T02:45:22.431Z,21.61
2023-01-06T02:48:08.047Z,21.70
2023-01-06T02:51:00.482Z,21.84
2023-01-06T02:53:57.676Z,21.98
2023-01-06T02:56:32.853Z,22.11
2023-01-06T02:59:07.288Z,22.22
2023-01-06T03:01:43.808Z,22.32
2023-01-06T03:04:22.274Z,22.43
2023-01-06T03:06:53.580Z,22.54
2023-01-06T03:09:28.692Z,22.60
2023-01-06T03:11:57.001Z,22.68
2023-01-06T03:14:31.961Z,22.78
2023-01-06T03:17:01.647Z,22.87
2023-01-06T03:19:30.108Z,23.00
2023-01-06T03:22:00.504Z,23.12
2023-01-06T03:24:29.874Z,23.27
2023-01-06T03:27:00.344Z,23.40
2023-01-06T03:29:28.712Z,23.49
2023-01-06T03:32:28.974Z,23.58
2023-01-06T03:35:34.199Z,23.77
2023-01-06T03:38:08.057Z,23.85
2023-01-06T03:41:09.663Z,23.93
2023-01-06T03:43:43.564Z,24.03
2023-01-06T03:46:30.384Z,24.14
2023-01-06T03:48:58.636Z,24.24
2023-01-06T03:51:40.707Z,24.39
2023-01-06T03:54:48.967Z,24.46
2023-01-06T03:57:26.514Z,24.53
2023-01-06T04:00:09.300Z,24.58
2023-01-06T04:02:40.979Z,24.63
2023-01-06T04:05:21.751Z,24.69
2023-01-06T04:07:50.659Z,24.76
2023-01-06T04:10:21.065Z,24.82
2023-01-06T04:12:49.841Z,24.90
2023-01-06T04:15:21.123Z,24.98
2023-01-06T04:17:50.508Z,25.02
2023-01-06T04:20:21.395Z,25.07
2023-01-06T04:22:49.672Z,25.12
2023-01-06T04:25:18.100Z,25.16
2023-01-06T04:27:46.392Z,25.21
2023-01-06T04:30:15.019Z,25.23
2023-01-06T04:32:43.705Z,25.27
2023-01-06T04:35:12.444Z,25.32
2023-01-06T04:37:40.846Z,25.34
2023-01-06T04:40:09.770Z,25.36
2023-01-06T04:42:58.308Z,25.39
2023-01-06T04:45:26.794Z,25.41
2023-01-06T04:47:55.113Z,25.47
2023-01-06T04:50:23.415Z,25.49
2023-01-06T04:52:51.804Z,25.53
2023-01-06T04:55:20.228Z,25.56
2023-01-06T04:57:48.596Z,25.57
2023-01-06T05:00:17.250Z,25.64
2023-01-06T05:02:46.505Z,25.66
2023-01-06T05:05:15.999Z,25.68
2023-01-06T05:07:44.681Z,25.74
2023-01-06T05:10:13.097Z,25.80
2023-01-06T05:12:41.539Z,25.85
2023-01-06T05:15:11.038Z,25.89
2023-01-06T05:17:39.350Z,25.95
2023-01-06T05:20:08.418Z,25.96
2023-01-06T05:22:36.704Z,25.97
2023-01-06T05:25:05.482Z,25.96
2023-01-06T05:27:33.872Z,25.99
2023-01-06T05:30:02.154Z,26.01
2023-01-06T05:32:30.442Z,26.08
2023-01-06T05:34:58.785Z,26.14
2023-01-06T05:37:27.709Z,26.21
2023-01-06T05:39:56.001Z,26.29
2023-01-06T05:42:24.307Z,26.37
2023-01-06T05:44:52.597Z,26.43
2023-01-06T05:47:20.985Z,26.45
2023-01-06T05:49:49.278Z,26.51
2023-01-06T05:52:17.553Z,26.50
2023-01-06T05:54:45.847Z,26.49
2023-01-06T05:57:14.170Z,26.52
2023-01-06T05:59:42.458Z,26.53
2023-01-06T06:02:10.850Z,26.55
2023-01-06T06:04:39.173Z,26.59
2023-01-06T06:07:07.484Z,26.63
2023-01-06T06:09:35.748Z,26.60
2023-01-06T06:12:04.103Z,26.59
2023-01-06T06:14:32.581Z,26.60
2023-01-06T06:17:00.874Z,26.66
2023-01-06T06:19:29.229Z,26.71
2023-01-06T06:21:57.602Z,26.72
2023-01-06T06:24:25.921Z,26.73
2023-01-06T06:26:54.198Z,26.74
2023-01-06T06:29:22.495Z,26.80
2023-01-06T06:31:50.901Z,26.85
2023-01-06T06:34:19.269Z,26.92
2023-01-06T06:36:47.548Z,26.97
2023-01-06T06:39:15.846Z,27.02
2023-01-06T06:41:44.153Z,27.08
2023-01-06T06:44:12.552Z,27.11
2023-01-06T06:46:40.895Z,27.12
2023-01-06T06:49:09.324Z,27.09
2023-01-06T06:51:37.740Z,27.06
2023-01-06T06:54:06.442Z,27.02
2023-01-06T06:56:34.839Z,26.99
2023-01-06T06:59:03.119Z,27.02
2023-01-06T07:01:32.822Z,27.08
2023-01-06T07:04:01.579Z,27.16
2023-01-06T07:06:29.999Z,27.17
2023-01-06T07:08:58.462Z,27.19
2023-01-06T07:11:26.874Z,27.20
2023-01-06T07:13:55.177Z,27.18
2023-01-06T07:16:26.642Z,27.19
2023-01-06T07:18:55.017Z,27.22
2023-01-06T07:21:23.581Z,27.20
2023-01-06T07:23:51.933Z,27.16
2023-01-06T07:26:20.560Z,27.17
2023-01-06T07:28:48.864Z,27.17
2023-01-06T07:31:17.526Z,27.16
2023-01-06T07:33:45.973Z,27.15
2023-01-06T07:36:14.278Z,27.14
2023-01-06T07:38:42.673Z,27.14
2023-01-06T07:41:11.858Z,27.11
2023-01-06T07:43:40.137Z,27.09
2023-01-06T07:46:08.442Z,27.09
2023-01-06T07:48:37.370Z,27.10
2023-01-06T07:51:05.961Z,27.13
2023-01-06T07:53:34.646Z,27.16
2023-01-06T07:56:02.936Z,27.15
2023-01-06T07:58:31.264Z,27.13
2023-01-06T08:00:59.565Z,27.09
2023-01-06T08:03:27.861Z,27.02
2023-01-06T08:05:56.154Z,26.96
2023-01-06T08:08:24.678Z,26.88
2023-01-06T08:10:53.561Z,26.84
2023-01-06T08:13:21.867Z,26.79
2023-01-06T08:15:52.749Z,26.72
2023-01-06T08:18:21.265Z,26.65
2023-01-06T08:20:49.655Z,26.60
2023-01-06T08:23:18.006Z,26.52
2023-01-06T08:25:46.313Z,26.46
2023-01-06T08:28:14.638Z,26.41
2023-01-06T08:30:44.328Z,26.37
2023-01-06T08:33:12.664Z,26.34
2023-01-06T08:35:40.969Z,26.30
2023-01-06T08:38:09.275Z,26.26
2023-01-06T08:40:37.555Z,26.22
2023-01-06T08:43:05.963Z,26.18
2023-01-06T08:45:34.453Z,26.16
2023-01-06T08:48:02.908Z,26.15
2023-01-06T08:50:31.256Z,26.13
2023-01-06T08:52:59.547Z,26.11
2023-01-06T08:55:28.601Z,26.10
2023-01-06T08:57:56.906Z,26.11
2023-01-06T09:00:25.458Z,26.12
2023-01-06T09:02:53.821Z,26.15
2023-01-06T09:05:22.142Z,26.16
2023-01-06T09:07:53.717Z,26.13
2023-01-06T09:10:22.649Z,26.11
2023-01-06T09:12:51.486Z,26.09
2023-01-06T09:15:19.890Z,26.06
2023-01-06T09:17:48.185Z,26.01
2023-01-06T09:20:16.480Z,25.98
2023-01-06T09:22:46.834Z,25.93
2023-01-06T09:25:15.144Z,25.88
2023-01-06T09:27:43.418Z,25.80
2023-01-06T09:30:12.302Z,25.77
2023-01-06T09:32:40.591Z,25.72
2023-01-06T09:35:09.659Z,25.70
2023-01-06T09:37:37.990Z,25.66
2023-01-06T09:40:06.895Z,25.63
2023-01-06T09:42:56.930Z,25.62
2023-01-06T09:45:42.691Z,25.59
2023-01-06T09:48:18.845Z,25.55
2023-01-06T09:50:51.865Z,25.53
2023-01-06T09:53:37.284Z,25.50
2023-01-06T09:56:10.166Z,25.47
2023-01-06T09:58:41.608Z,25.44
2023-01-06T10:01:14.240Z,25.41
2023-01-06T10:03:43.031Z,25.40
2023-01-06T10:06:33.105Z,25.37
2023-01-06T10:09:16.569Z,25.32
2023-01-06T10:11:48.048Z,25.30
2023-01-06T10:14:34.688Z,25.24
2023-01-06T10:17:26.984Z,25.21
2023-01-06T10:20:05.689Z,25.16
2023-01-06T10:22:34.034Z,25.13
2023-01-06T10:25:23.308Z,25.08
2023-01-06T10:27:57.426Z,25.06
2023-01-06T10:30:40.236Z,25.03
2023-01-06T10:33:12.511Z,25.00
2023-01-06T10:35:40.947Z,24.96
2023-01-06T10:38:14.261Z,24.92
2023-01-06T10:40:42.777Z,24.90
2023-01-06T10:43:14.772Z,24.86
2023-01-06T10:45:45.462Z,24.83
2023-01-06T10:48:19.419Z,24.79
2023-01-06T10:50:48.278Z,24.75
2023-01-06T10:53:17.691Z,24.70
2023-01-06T10:56:01.547Z,24.66
2023-01-06T10:58:46.511Z,24.61
2023-01-06T11:01:17.807Z,24.57
2023-01-06T11:03:46.565Z,24.54
2023-01-06T11:06:27.605Z,24.50
2023-01-06T11:08:56.357Z,24.47
2023-01-06T11:11:28.625Z,24.42
2023-01-06T11:14:02.343Z,24.38
2023-01-06T11:16:37.225Z,24.32
2023-01-06T11:21:47.689Z,24.23
2023-01-06T11:24:24.691Z,24.18
2023-01-06T11:27:17.794Z,24.13
2023-01-06T11:29:46.117Z,24.08
2023-01-06T11:32:32.816Z,24.05
2023-01-06T11:35:07.442Z,23.99
2023-01-06T11:37:40.200Z,23.95
2023-01-06T11:40:34.616Z,23.93
2023-01-06T11:43:11.128Z,23.89
2023-01-06T11:45:55.913Z,23.88
2023-01-06T11:48:34.347Z,23.85
2023-01-06T11:51:09.004Z,23.84
2023-01-06T11:53:40.044Z,23.82
2023-01-06T11:56:22.001Z,23.81
2023-01-06T11:59:08.519Z,23.78
2023-01-06T12:02:01.672Z,23.75
2023-01-06T12:04:53.207Z,23.71
2023-01-06T12:07:54.004Z,23.68
2023-01-06T12:10:29.170Z,23.64
2023-01-06T12:12:57.653Z,23.61
2023-01-06T12:15:28.993Z,23.57
2023-01-06T12:18:06.095Z,23.55
2023-01-06T12:20:43.087Z,23.51
2023-01-06T12:23:41.149Z,23.47
2023-01-06T12:26:24.719Z,23.46
2023-01-06T12:28:56.249Z,23.43
2023-01-06T12:31:46.593Z,23.42
2023-01-06T12:34:38.633Z,23.38
2023-01-06T12:37:24.974Z,23.38
2023-01-06T12:40:17.838Z,23.35
2023-01-06T12:43:15.628Z,23.33
2023-01-06T12:45:56.648Z,23.33
2023-01-06T12:48:43.182Z,23.31
2023-01-06T12:51:32.764Z,23.29
2023-01-06T12:54:24.218Z,23.28
2023-01-06T12:57:03.210Z,23.27
2023-01-06T12:59:46.349Z,23.26
2023-01-06T13:02:49.800Z,23.24
2023-01-06T13:05:54.490Z,23.24
2023-01-06T13:08:28.531Z,23.21
2023-01-06T13:11:08.672Z,23.21
2023-01-06T13:13:48.803Z,23.19
2023-01-06T13:16:37.810Z,23.19
2023-01-06T13:19:18.555Z,23.18
2023-01-06T13:21:51.340Z,23.16
2023-01-06T13:24:19.740Z,23.17
2023-01-06T13:27:00.251Z,23.13
2023-01-06T13:29:53.713Z,23.13
2023-01-06T13:32:40.487Z,23.12
2023-01-06T13:35:24.183Z,23.11
2023-01-06T13:38:30.599Z,23.09
2023-01-06T13:41:03.837Z,23.08
2023-01-06T13:43:36.340Z,23.07
2023-01-06T13:46:12.382Z,23.05
2023-01-06T13:48:49.704Z,23.03
2023-01-06T13:51:24.795Z,23.02
2023-01-06T13:53:55.593Z,23.00
2023-01-06T13:56:23.817Z,23.00
2023-01-06T13:59:13.703Z,22.99
2023-01-06T14:01:42.147Z,22.97
2023-01-06T14:04:38.097Z,22.96
2023-01-06T14:07:06.766Z,22.95
2023-01-06T14:09:40.709Z,22.94
2023-01-06T14:12:26.115Z,22.91
2023-01-06T14:15:04.702Z,22.90
2023-01-06T14:17:40.887Z,22.88
2023-01-06T14:20:33.068Z,22.88
2023-01-06T14:23:13.238Z,22.85
2023-01-06T14:25:44.259Z,22.83
2023-01-06T14:28:35.443Z,22.80
2023-01-06T14:31:32.463Z,22.78
2023-01-06T14:34:04.622Z,22.75
2023-01-06T14:36:35.133Z,22.71
2023-01-06T14:39:08.793Z,22.67
2023-01-06T14:41:55.878Z,22.62
2023-01-06T14:44:49.923Z,22.57
2023-01-06T14:47:36.170Z,22.54
2023-01-06T14:50:09.757Z,22.50
2023-01-06T14:52:44.058Z,22.46
2023-01-06T14:55:19.278Z,22.44
2023-01-06T14:57:48.853Z,22.41
2023-01-06T15:00:30.942Z,22.38
2023-01-06T15:03:01.686Z,22.36
2023-01-06T15:05:37.304Z,22.32
2023-01-06T15:08:12.969Z,22.28
2023-01-06T15:10:47.300Z,22.25
2023-01-06T15:13:25.910Z,22.23
2023-01-06T15:16:31.911Z,22.20
2023-01-06T15:19:01.949Z,22.16
2023-01-06T15:21:30.668Z,22.14
2023-01-06T15:23:59.137Z,22.09
2023-01-06T15:26:29.730Z,22.07
2023-01-06T15:29:00.272Z,22.04
2023-01-06T15:31:39.320Z,22.00
2023-01-06T15:34:34.721Z,21.97
2023-01-06T15:37:05.937Z,21.93
2023-01-06T15:39:38.739Z,21.88
2023-01-06T15:42:09.884Z,21.83
2023-01-06T15:44:40.020Z,21.80
2023-01-06T15:47:14.540Z,21.74
2023-01-06T15:49:57.619Z,21.70
2023-01-06T15:52:48.685Z,21.63
2023-01-06T15:55:38.765Z,21.58
2023-01-06T15:58:28.536Z,21.54
2023-01-06T16:01:07.771Z,21.53
2023-01-06T16:03:37.107Z,21.49
2023-01-06T16:06:13.525Z,21.47
2023-01-06T16:08:43.670Z,21.44
2023-01-06T16:11:45.834Z,21.43
2023-01-06T16:14:29.146Z,21.40
2023-01-06T16:17:15.072Z,21.37
2023-01-06T16:20:08.333Z,21.32
2023-01-06T16:22:52.431Z,21.27
2023-01-06T16:25:35.476Z,21.22
2023-01-06T16:28:06.250Z,21.18
2023-01-06T16:30:37.322Z,21.15
2023-01-06T16:33:05.984Z,21.11
2023-01-06T16:35:35.778Z,21.07
2023-01-06T16:38:04.493Z,21.05
2023-01-06T16:40:32.883Z,21.01
2023-01-06T16:43:02.904Z,20.99
2023-01-06T16:45:39.014Z,20.96
2023-01-06T16:48:08.381Z,20.94
2023-01-06T16:50:41.542Z,20.91
2023-01-06T16:53:17.622Z,20.90
2023-01-06T16:55:46.656Z,20.88
2023-01-06T16:58:23.628Z,20.86
2023-01-06T17:00:54.051Z,20.83
2023-01-06T17:03:28.760Z,20.80
2023-01-06T17:05:57.835Z,20.77
2023-01-06T17:08:33.403Z,20.74
2023-01-06T17:11:04.996Z,20.69
2023-01-06T17:13:36.143Z,20.66
2023-01-06T17:16:16.516Z,20.62
2023-01-06T17:19:24.633Z,20.56
2023-01-06T17:22:01.240Z,20.52
2023-01-06T17:24:31.314Z,20.49
2023-01-06T17:27:23.925Z,20.45
2023-01-06T17:29:53.015Z,20.42
2023-01-06T17:32:26.609Z,20.38
2023-01-06T17:34:54.915Z,20.32
2023-01-06T17:37:31.249Z,20.28
2023-01-06T17:39:59.771Z,20.25
2023-01-06T17:42:36.898Z,20.20
2023-01-06T17:45:18.854Z,20.17
2023-01-06T17:47:50.794Z,20.14
2023-01-06T17:50:34.030Z,20.12
2023-01-06T17:53:37.809Z,20.09
2023-01-06T17:56:09.324Z,20.09
2023-01-06T17:58:40.455Z,20.09
2023-01-06T18:01:11.437Z,20.10
2023-01-06T18:03:43.805Z,20.10
2023-01-06T18:06:38.835Z,20.10
2023-01-06T18:09:07.119Z,20.12
2023-01-06T18:12:04.460Z,20.14
2023-01-06T18:14:43.489Z,20.16
2023-01-06T18:17:33.921Z,20.17
2023-01-06T18:20:03.795Z,20.19
2023-01-06T18:22:34.758Z,20.21
2023-01-06T18:25:03.340Z,20.21
2023-01-06T18:27:35.618Z,20.23
2023-01-06T18:30:16.070Z,20.23
2023-01-06T18:32:46.572Z,20.23
2023-01-06T18:35:29.792Z,20.22
2023-01-06T18:38:03.436Z,20.20
2023-01-06T18:40:32.522Z,20.19
2023-01-06T18:43:03.795Z,20.16
2023-01-06T18:45:38.049Z,20.16
2023-01-06T18:48:19.652Z,20.11
2023-01-06T18:50:51.868Z,20.08
2023-01-06T18:53:26.809Z,20.03
2023-01-06T18:55:58.585Z,20.01
2023-01-06T18:58:32.534Z,19.99
2023-01-06T19:01:04.337Z,19.96
2023-01-06T19:03:38.963Z,19.93
2023-01-06T19:06:10.358Z,19.90
2023-01-06T19:08:41.448Z,19.89
2023-01-06T19:11:35.923Z,19.87
2023-01-06T19:14:12.003Z,19.86
2023-01-06T19:16:57.147Z,19.83
2023-01-06T19:19:54.473Z,19.81
2023-01-06T19:22:35.143Z,19.80
2023-01-06T19:25:15.568Z,19.79
2023-01-06T19:27:51.086Z,19.79
2023-01-06T19:30:37.729Z,19.81
2023-01-06T19:33:25.726Z,19.79
2023-01-06T19:36:01.846Z,19.79
2023-01-06T19:38:31.355Z,19.80
2023-01-06T19:41:02.480Z,19.77
2023-01-06T19:43:34.547Z,19.74
2023-01-06T19:46:38.918Z,19.74
2023-01-06T19:49:23.323Z,19.74
2023-01-06T19:51:55.160Z,19.74
2023-01-06T19:54:35.391Z,19.74
2023-01-06T19:57:20.690Z,19.72
2023-01-06T19:59:48.998Z,19.73
2023-01-06T20:02:25.627Z,19.73
2023-01-06T20:04:53.987Z,19.71
2023-01-06T20:07:22.350Z,19.72
2023-01-06T20:09:50.753Z,19.72
2023-01-06T20:12:19.068Z,19.70
2023-01-06T20:14:47.383Z,19.69
2023-01-06T20:17:17.491Z,19.70
2023-01-06T20:19:45.801Z,19.68
2023-01-06T20:22:14.143Z,19.68
2023-01-06T20:24:42.441Z,19.68
2023-01-06T20:27:10.766Z,19.67
2023-01-06T20:29:39.102Z,19.66
2023-01-06T20:32:07.634Z,19.64
2023-01-06T20:34:35.920Z,19.64
2023-01-06T20:37:04.248Z,19.63
2023-01-06T20:39:33.001Z,19.62
2023-01-06T20:42:04.593Z,19.60
2023-01-06T20:44:33.036Z,19.61
2023-01-06T20:47:01.395Z,19.60
2023-01-06T20:49:29.753Z,19.58
2023-01-06T20:51:58.043Z,19.59
2023-01-06T20:54:26.331Z,19.58
2023-01-06T20:56:54.892Z,19.58
2023-01-06T20:59:23.266Z,19.57
2023-01-06T21:01:52.686Z,19.57
2023-01-06T21:04:21.073Z,19.56
2023-01-06T21:06:49.422Z,19.57
2023-01-06T21:09:17.720Z,19.56
2023-01-06T21:11:46.055Z,19.54
2023-01-06T21:14:14.320Z,19.55
2023-01-06T21:16:42.634Z,19.53
2023-01-06T21:19:10.948Z,19.53
2023-01-06T21:21:39.284Z,19.52
2023-01-06T21:24:07.915Z,19.52
2023-01-06T21:26:36.201Z,19.52
2023-01-06T21:29:04.499Z,19.51
2023-01-06T21:31:32.939Z,19.51
2023-01-06T21:34:01.274Z,19.51
2023-01-06T21:36:29.566Z,19.51
2023-01-06T21:38:57.869Z,19.50
2023-01-06T21:41:44.383Z,19.49
2023-01-06T21:44:12.858Z,19.48
2023-01-06T21:46:41.214Z,19.47
2023-01-06T21:49:09.587Z,19.47
2023-01-06T21:51:38.349Z,19.45
2023-01-06T21:54:07.169Z,19.45
2023-01-06T21:56:36.993Z,19.44
2023-01-06T21:59:05.390Z,19.41
2023-01-06T22:01:33.825Z,19.41
2023-01-06T22:04:02.228Z,19.40
2023-01-06T22:06:31.252Z,19.38
2023-01-06T22:09:02.568Z,19.38
2023-01-06T22:11:32.290Z,19.38
2023-01-06T22:14:01.555Z,19.37
2023-01-06T22:16:30.163Z,19.36
2023-01-06T22:18:58.809Z,19.34
2023-01-06T22:21:28.956Z,19.35
2023-01-06T22:23:58.786Z,19.33
2023-01-06T22:26:27.108Z,19.31
2023-01-06T22:28:55.395Z,19.29
2023-01-06T22:31:23.692Z,19.29
2023-01-06T22:33:52.012Z,19.29
2023-01-06T22:36:20.336Z,19.27
2023-01-06T22:38:48.650Z,19.28
2023-01-06T22:41:16.935Z,19.29
2023-01-06T22:43:45.256Z,19.28
2023-01-06T22:46:13.656Z,19.27
2023-01-06T22:48:44.166Z,19.25
2023-01-06T22:51:14.257Z,19.27
2023-01-06T22:53:42.561Z,19.25
2023-01-06T22:56:12.552Z,19.25
2023-01-06T22:58:42.054Z,19.24
2023-01-06T23:01:11.139Z,19.21
2023-01-06T23:03:39.695Z,19.18
2023-01-06T23:06:13.658Z,19.17
2023-01-06T23:08:58.498Z,19.17
2023-01-06T23:11:28.820Z,19.15
2023-01-06T23:13:58.936Z,19.15
2023-01-06T23:16:29.935Z,19.12
2023-01-06T23:18:58.496Z,19.12
2023-01-06T23:21:29.799Z,19.08
2023-01-06T23:23:58.421Z,19.07
2023-01-06T23:26:45.932Z,19.05
2023-01-06T23:29:15.441Z,19.04
2023-01-06T23:31:45.982Z,19.05
2023-01-06T23:34:17.250Z,19.02
2023-01-06T23:36:46.358Z,19.00
2023-01-06T23:39:17.735Z,18.98
2023-01-06T23:41:46.174Z,18.95
2023-01-06T23:44:18.891Z,18.94
2023-01-06T23:46:48.134Z,18.93
2023-01-06T23:49:18.064Z,18.92
2023-01-06T23:51:46.807Z,18.91
2023-01-06T23:54:16.079Z,18.89
2023-01-06T23:56:44.423Z,18.90
2023-01-06T23:59:13.944Z,18.90
